Terminal Aerodrome Forecast
Issued by NWS Grand Rapids, MI

Home | Current Version | Previous Version | Text Only | Print | Product List | Glossary On
Versions: 1 2 3 4 5 6 7 8 9 10 11 12 13 14 15 16 17 18 19 20
291
FTUS43 KGRR 090543
TAFGRR
TAF
KGRR 090543Z 0906/1006 28008KT 5SM BR OVC012
     FM090900 31011KT 6SM BR OVC011
     FM091600 32014G22KT 6SM -SHSN OVC015=

USA.gov is the U.S. government's official web portal to all federal, state and local government web resources and services.